createdAt,value
2018-06-05T00:01:36.724Z,19.06
2018-06-05T00:04:06.192Z,19.07
2018-06-05T00:06:35.336Z,19.10
2018-06-05T00:09:04.599Z,19.03
2018-06-05T00:11:33.752Z,19.05
2018-06-05T00:14:03.095Z,19.05
2018-06-05T00:16:32.303Z,19.05
2018-06-05T00:19:01.677Z,19.04
2018-06-05T00:21:31.133Z,18.97
2018-06-05T00:24:00.525Z,18.89
2018-06-05T00:26:29.765Z,18.79
2018-06-05T00:28:59.027Z,18.75
2018-06-05T00:31:28.303Z,18.80
2018-06-05T00:33:57.568Z,18.79
2018-06-05T00:36:26.792Z,18.84
2018-06-05T00:38:56.133Z,18.77
2018-06-05T00:41:25.397Z,18.75
2018-06-05T00:43:54.775Z,18.71
2018-06-05T00:46:23.958Z,18.63
2018-06-05T00:48:53.336Z,18.55
2018-06-05T00:51:33.371Z,18.55
2018-06-05T00:54:02.650Z,18.45
2018-06-05T00:56:31.927Z,18.36
2018-06-05T00:59:01.199Z,18.34
2018-06-05T01:01:30.408Z,18.18
2018-06-05T01:03:59.595Z,18.20
2018-06-05T01:06:28.876Z,18.19
2018-06-05T01:08:58.152Z,18.25
2018-06-05T01:11:27.419Z,18.26
2018-06-05T01:13:56.592Z,18.21
2018-06-05T01:16:25.869Z,18.15
2018-06-05T01:18:55.104Z,18.15
2018-06-05T01:21:24.512Z,18.18
2018-06-05T01:23:53.862Z,18.17
2018-06-05T01:26:23.157Z,18.13
2018-06-05T01:28:52.389Z,18.10
2018-06-05T01:31:21.616Z,18.07
2018-06-05T01:33:50.928Z,17.99
2018-06-05T01:36:20.269Z,17.94
2018-06-05T01:38:49.527Z,17.91
2018-06-05T01:41:18.979Z,17.90
2018-06-05T01:43:48.096Z,17.89
2018-06-05T01:46:17.181Z,17.86
2018-06-05T01:48:46.531Z,17.80
2018-06-05T01:51:15.799Z,17.74
2018-06-05T01:53:45.037Z,17.72
2018-06-05T01:56:14.207Z,17.69
2018-06-05T01:58:43.478Z,17.67
2018-06-05T02:01:12.746Z,17.71
2018-06-05T02:03:42.080Z,17.66
2018-06-05T02:06:11.451Z,17.58
2018-06-05T02:08:41.008Z,17.48
2018-06-05T02:11:10.246Z,17.49
2018-06-05T02:13:39.463Z,17.50
2018-06-05T02:16:08.748Z,17.48
2018-06-05T02:18:38.012Z,17.48
2018-06-05T02:21:07.357Z,17.41
2018-06-05T02:23:36.613Z,17.37
2018-06-05T02:26:05.836Z,17.38
2018-06-05T02:28:35.172Z,17.34
2018-06-05T02:31:04.427Z,17.34
2018-06-05T02:33:33.715Z,17.31
2018-06-05T02:36:03.077Z,17.18
2018-06-05T02:38:32.504Z,17.12
2018-06-05T02:41:01.837Z,17.10
2018-06-05T02:43:31.047Z,17.06
2018-06-05T02:46:00.281Z,17.03
2018-06-05T02:48:29.503Z,17.05
2018-06-05T02:50:58.637Z,17.07
2018-06-05T02:53:27.896Z,17.04
2018-06-05T02:55:57.179Z,17.00
2018-06-05T02:58:26.448Z,17.07
2018-06-05T03:00:55.718Z,17.09
2018-06-05T03:03:24.992Z,17.11
2018-06-05T03:05:54.313Z,17.09
2018-06-05T03:08:23.687Z,17.11
2018-06-05T03:10:53.053Z,17.10
2018-06-05T03:13:22.557Z,17.12
2018-06-05T03:15:51.873Z,17.11
2018-06-05T03:18:21.188Z,17.03
2018-06-05T03:20:50.464Z,16.92
2018-06-05T03:23:19.724Z,16.93
2018-06-05T03:25:49.021Z,16.95
2018-06-05T03:28:18.328Z,16.97
2018-06-05T03:30:47.811Z,17.10
2018-06-05T03:33:17.086Z,17.11
2018-06-05T03:35:46.416Z,17.20
2018-06-05T03:38:15.740Z,17.26
2018-06-05T03:40:45.013Z,17.28
2018-06-05T03:43:14.088Z,17.32
2018-06-05T03:45:43.448Z,17.33
2018-06-05T03:48:12.778Z,17.34
2018-06-05T03:50:42.101Z,17.32
2018-06-05T03:53:11.365Z,17.29
2018-06-05T03:55:40.461Z,17.33
2018-06-05T03:58:09.724Z,17.34
2018-06-05T04:00:39.053Z,17.37
2018-06-05T04:03:08.365Z,17.40
2018-06-05T04:05:37.677Z,17.46
2018-06-05T04:08:06.792Z,17.53
2018-06-05T04:10:35.984Z,17.57
2018-06-05T04:13:05.272Z,17.58
2018-06-05T04:15:34.528Z,17.65
2018-06-05T04:18:03.765Z,17.69
2018-06-05T04:20:32.980Z,17.76
2018-06-05T04:23:02.326Z,17.85
2018-06-05T04:25:31.524Z,17.98
2018-06-05T04:28:00.750Z,18.05
2018-06-05T04:30:30.089Z,18.12
2018-06-05T04:32:59.360Z,18.17
2018-06-05T04:35:28.623Z,18.23
2018-06-05T04:37:57.990Z,18.29
2018-06-05T04:40:27.380Z,18.36
2018-06-05T04:42:56.745Z,18.44
2018-06-05T04:45:25.916Z,18.52
2018-06-05T04:47:55.147Z,18.58
2018-06-05T04:50:24.477Z,18.64
2018-06-05T04:52:53.812Z,18.73
2018-06-05T04:55:23.000Z,18.82
2018-06-05T04:57:52.336Z,18.88
2018-06-05T05:00:21.356Z,19.03
2018-06-05T05:02:50.740Z,19.12
2018-06-05T05:05:20.132Z,19.26
2018-06-05T05:07:49.249Z,19.33
2018-06-05T05:10:18.577Z,19.49
2018-06-05T05:12:47.867Z,19.68
2018-06-05T05:15:17.381Z,19.87
2018-06-05T05:17:46.692Z,20.16
2018-06-05T05:20:16.050Z,20.38
2018-06-05T05:22:45.436Z,20.60
2018-06-05T05:25:14.700Z,20.82
2018-06-05T05:27:44.049Z,21.01
2018-06-05T05:30:13.244Z,21.14
2018-06-05T05:32:42.622Z,21.30
2018-06-05T05:35:11.656Z,21.43
2018-06-05T05:37:41.024Z,21.61
2018-06-05T05:40:10.352Z,21.68
2018-06-05T05:42:39.667Z,21.76
2018-06-05T05:45:09.000Z,21.86
2018-06-05T05:47:38.293Z,22.07
2018-06-05T05:50:08.664Z,22.31
2018-06-05T05:52:37.932Z,22.48
2018-06-05T05:55:07.200Z,22.58
2018-06-05T05:57:36.424Z,22.65
2018-06-05T06:00:05.926Z,22.58
2018-06-05T06:02:35.320Z,22.58
2018-06-05T06:05:04.841Z,22.52
2018-06-05T06:07:34.332Z,22.57
2018-06-05T06:10:03.696Z,22.61
2018-06-05T06:12:33.051Z,22.72
2018-06-05T06:15:02.388Z,22.81
2018-06-05T06:17:31.769Z,22.91
2018-06-05T06:20:01.198Z,23.16
2018-06-05T06:22:30.527Z,23.33
2018-06-05T06:24:59.901Z,23.55
2018-06-05T06:27:29.109Z,23.86
2018-06-05T06:29:58.381Z,24.12
2018-06-05T06:32:27.760Z,24.25
2018-06-05T06:34:57.067Z,24.22
2018-06-05T06:37:26.313Z,24.28
2018-06-05T06:39:55.527Z,24.18
2018-06-05T06:42:24.802Z,24.31
2018-06-05T06:44:54.067Z,24.49
2018-06-05T06:47:23.440Z,24.70
2018-06-05T06:49:52.692Z,24.84
2018-06-05T06:52:22.092Z,24.78
2018-06-05T06:54:51.429Z,24.63
2018-06-05T06:57:20.508Z,24.48
2018-06-05T06:59:49.920Z,24.47
2018-06-05T07:02:19.135Z,24.66
2018-06-05T07:04:48.363Z,25.19
2018-06-05T07:07:17.599Z,25.44
2018-06-05T07:09:46.904Z,25.41
2018-06-05T07:12:16.943Z,25.40
2018-06-05T07:14:46.309Z,25.40
2018-06-05T07:17:15.792Z,25.52
2018-06-05T07:19:45.108Z,25.70
2018-06-05T07:22:14.401Z,25.79
2018-06-05T07:24:43.820Z,25.65
2018-06-05T07:27:12.995Z,25.57
2018-06-05T07:29:42.128Z,25.58
2018-06-05T07:32:11.327Z,25.99
2018-06-05T07:34:40.612Z,26.42
2018-06-05T07:37:09.868Z,26.70
2018-06-05T07:39:39.147Z,26.77
2018-06-05T07:42:08.424Z,26.82
2018-06-05T07:44:37.645Z,26.84
2018-06-05T07:47:07.085Z,27.10
2018-06-05T07:49:36.293Z,27.40
2018-06-05T07:52:05.724Z,27.44
2018-06-05T07:54:35.095Z,27.46
2018-06-05T07:57:04.425Z,27.42
2018-06-05T07:59:33.748Z,27.45
2018-06-05T08:02:03.060Z,27.53
2018-06-05T08:04:32.384Z,27.17
2018-06-05T08:07:01.663Z,27.01
2018-06-05T08:09:30.880Z,26.68
2018-06-05T08:12:00.161Z,26.34
2018-06-05T08:14:29.490Z,26.63
2018-06-05T08:16:58.656Z,26.94
2018-06-05T08:19:27.933Z,27.38
2018-06-05T08:21:57.251Z,27.58
2018-06-05T08:24:26.423Z,27.85
2018-06-05T08:26:55.745Z,28.05
2018-06-05T08:29:25.094Z,27.85
2018-06-05T08:31:54.296Z,27.54
2018-06-05T08:34:23.624Z,27.41
2018-06-05T08:36:52.996Z,27.30
2018-06-05T08:39:22.369Z,27.28
2018-06-05T08:41:51.687Z,27.46
2018-06-05T08:44:21.125Z,27.40
2018-06-05T08:46:50.337Z,27.40
2018-06-05T08:49:19.668Z,27.24
2018-06-05T08:51:48.996Z,27.24
2018-06-05T08:54:18.250Z,27.82
2018-06-05T08:56:47.515Z,28.51
2018-06-05T08:59:16.812Z,29.08
2018-06-05T09:01:46.131Z,29.36
2018-06-05T09:04:15.582Z,28.80
2018-06-05T09:06:44.884Z,28.32
2018-06-05T09:09:14.373Z,27.91
2018-06-05T09:11:43.672Z,27.63
2018-06-05T09:14:13.067Z,27.67
2018-06-05T09:16:42.442Z,28.01
2018-06-05T09:19:11.868Z,28.78
2018-06-05T09:21:41.232Z,28.97
2018-06-05T09:24:10.484Z,29.01
2018-06-05T09:26:39.792Z,29.25
2018-06-05T09:29:09.205Z,29.68
2018-06-05T09:31:38.690Z,29.54
2018-06-05T09:34:08.008Z,29.25
2018-06-05T09:36:37.489Z,28.26
2018-06-05T09:39:09.025Z,27.70
2018-06-05T09:41:38.297Z,27.14
2018-06-05T09:44:07.556Z,26.45
2018-06-05T09:46:36.836Z,26.09
2018-06-05T09:49:06.156Z,26.20
2018-06-05T09:51:35.472Z,26.21
2018-06-05T09:54:04.762Z,26.32
2018-06-05T09:56:34.115Z,26.37
2018-06-05T09:59:03.552Z,26.40
2018-06-05T10:01:32.776Z,26.72
2018-06-05T10:04:02.208Z,27.25
2018-06-05T10:06:31.581Z,27.75
2018-06-05T10:09:00.895Z,28.39
2018-06-05T10:11:30.308Z,28.50
2018-06-05T10:13:59.640Z,28.46
2018-06-05T10:16:29.124Z,28.70
2018-06-05T10:18:58.492Z,29.11
2018-06-05T10:21:27.926Z,29.34
2018-06-05T10:23:57.295Z,29.47
2018-06-05T10:26:26.665Z,29.54
2018-06-05T10:28:56.040Z,29.84
2018-06-05T10:31:25.410Z,29.76
2018-06-05T10:33:54.649Z,29.51
2018-06-05T10:36:23.816Z,29.22
2018-06-05T10:38:53.137Z,28.95
2018-06-05T10:41:22.516Z,28.98
2018-06-05T10:43:51.876Z,29.35
2018-06-05T10:46:21.111Z,29.82
2018-06-05T10:48:50.484Z,30.18
2018-06-05T10:51:19.908Z,30.30
2018-06-05T10:53:49.369Z,29.86
2018-06-05T10:56:18.692Z,29.31
2018-06-05T10:58:48.093Z,28.86
2018-06-05T11:01:17.393Z,28.73
2018-06-05T11:03:46.720Z,28.56
2018-06-05T11:06:15.900Z,28.52
2018-06-05T11:08:45.119Z,28.55
2018-06-05T11:11:14.449Z,28.42
2018-06-05T11:13:43.660Z,28.14
2018-06-05T11:16:12.997Z,27.86
2018-06-05T11:18:42.209Z,27.48
2018-06-05T11:21:11.440Z,27.27
2018-06-05T11:23:40.733Z,27.19
2018-06-05T11:26:10.057Z,27.13
2018-06-05T11:28:39.415Z,27.02
2018-06-05T11:31:08.794Z,26.96
2018-06-05T11:33:38.976Z,26.94
2018-06-05T11:36:08.283Z,27.03
2018-06-05T11:38:37.533Z,27.09
2018-06-05T11:41:06.733Z,27.18
2018-06-05T11:43:36.005Z,27.41
2018-06-05T11:46:05.417Z,27.22
2018-06-05T11:48:34.659Z,26.91
2018-06-05T11:51:03.940Z,26.97
2018-06-05T11:53:33.148Z,27.11
2018-06-05T11:56:02.434Z,27.00
2018-06-05T11:58:31.707Z,26.88
2018-06-05T12:01:00.987Z,26.89
2018-06-05T12:03:30.287Z,26.93
2018-06-05T12:05:59.634Z,26.84
2018-06-05T12:08:29.056Z,26.80
2018-06-05T12:10:58.533Z,26.81
2018-06-05T12:13:27.893Z,26.91
2018-06-05T12:15:57.261Z,27.09
2018-06-05T12:18:26.652Z,27.64
2018-06-05T12:20:56.081Z,28.12
2018-06-05T12:23:25.493Z,28.61
2018-06-05T12:25:54.872Z,28.93
2018-06-05T12:28:24.244Z,29.04
2018-06-05T12:30:53.720Z,28.95
2018-06-05T12:33:23.084Z,29.13
2018-06-05T12:35:52.340Z,29.51
2018-06-05T12:38:21.401Z,29.75
2018-06-05T12:40:50.760Z,29.74
2018-06-05T12:43:20.250Z,29.63
2018-06-05T12:45:50.421Z,29.38
2018-06-05T12:48:19.789Z,29.11
2018-06-05T12:50:49.171Z,28.96
2018-06-05T12:53:18.434Z,28.91
2018-06-05T12:55:48.048Z,28.76
2018-06-05T12:58:17.625Z,28.77
2018-06-05T13:00:46.888Z,28.70
2018-06-05T13:03:16.163Z,28.63
2018-06-05T13:05:45.383Z,28.56
2018-06-05T13:08:14.692Z,28.53
2018-06-05T13:10:43.896Z,28.50
2018-06-05T13:13:13.184Z,28.52
2018-06-05T13:15:42.448Z,28.47
2018-06-05T13:18:11.733Z,28.41
2018-06-05T13:20:41.045Z,28.34
2018-06-05T13:23:10.471Z,28.38
2018-06-05T13:25:39.839Z,28.69
2018-06-05T13:28:09.164Z,28.83
2018-06-05T13:30:38.461Z,28.86
2018-06-05T13:33:07.808Z,28.83
2018-06-05T13:35:37.104Z,28.93
2018-06-05T13:38:06.459Z,29.01
2018-06-05T13:40:35.800Z,29.01
2018-06-05T13:43:05.008Z,28.95
2018-06-05T13:45:34.289Z,28.85
2018-06-05T13:48:03.714Z,28.74
2018-06-05T13:50:32.983Z,28.62
2018-06-05T13:53:02.325Z,28.40
2018-06-05T13:55:31.676Z,28.22
2018-06-05T13:58:00.856Z,28.06
2018-06-05T14:00:29.936Z,27.74
2018-06-05T14:02:59.348Z,27.53
2018-06-05T14:05:28.876Z,27.29
2018-06-05T14:07:58.200Z,26.90
2018-06-05T14:10:27.483Z,26.60
2018-06-05T14:12:56.700Z,25.86
2018-06-05T14:15:26.088Z,25.17
2018-06-05T14:17:55.396Z,24.56
2018-06-05T14:20:24.772Z,24.17
2018-06-05T14:22:54.087Z,23.75
2018-06-05T14:25:23.580Z,23.45
2018-06-05T14:27:52.840Z,23.24
2018-06-05T14:30:22.182Z,23.06
2018-06-05T14:32:51.462Z,22.98
2018-06-05T14:35:20.691Z,22.96
2018-06-05T14:37:50.005Z,22.92
2018-06-05T14:40:19.320Z,22.75
2018-06-05T14:42:48.658Z,22.81
2018-06-05T14:45:18.132Z,22.93
2018-06-05T14:47:47.440Z,23.08
2018-06-05T14:50:16.656Z,23.27
2018-06-05T14:52:45.754Z,23.44
2018-06-05T14:55:15.008Z,23.55
2018-06-05T14:57:44.276Z,23.73
2018-06-05T15:00:13.558Z,23.86
2018-06-05T15:02:42.780Z,23.83
2018-06-05T15:05:11.927Z,23.73
2018-06-05T15:07:41.273Z,23.75
2018-06-05T15:10:10.722Z,23.70
2018-06-05T15:12:40.124Z,23.69
2018-06-05T15:15:09.602Z,23.81
2018-06-05T15:17:38.923Z,23.98
2018-06-05T15:20:08.239Z,24.18
2018-06-05T15:22:37.636Z,24.32
2018-06-05T15:25:06.905Z,24.49
2018-06-05T15:27:36.325Z,24.56
2018-06-05T15:30:06.192Z,24.50
2018-06-05T15:32:35.467Z,24.60
2018-06-05T15:35:04.865Z,24.83
2018-06-05T15:37:34.040Z,25.01
2018-06-05T15:40:03.311Z,25.18
2018-06-05T15:42:32.613Z,25.32
2018-06-05T15:45:01.944Z,25.51
2018-06-05T15:47:31.309Z,25.53
2018-06-05T15:50:00.679Z,25.61
2018-06-05T15:52:30.000Z,25.74
2018-06-05T15:54:59.346Z,25.90
2018-06-05T15:57:28.683Z,26.12
2018-06-05T15:59:57.991Z,26.27
2018-06-05T16:02:27.325Z,26.34
2018-06-05T16:04:56.584Z,26.36
2018-06-05T16:07:26.160Z,26.16
2018-06-05T16:09:55.569Z,26.23
2018-06-05T16:12:24.905Z,26.30
2018-06-05T16:14:54.232Z,26.11
2018-06-05T16:17:23.548Z,26.03
2018-06-05T16:19:52.828Z,26.05
2018-06-05T16:22:22.097Z,25.97
2018-06-05T16:24:51.327Z,25.73
2018-06-05T16:27:20.509Z,25.57
2018-06-05T16:29:49.972Z,25.45
2018-06-05T16:32:19.452Z,25.19
2018-06-05T16:34:48.837Z,24.96
2018-06-05T16:37:18.100Z,24.76
2018-06-05T16:39:47.408Z,24.59
2018-06-05T16:42:16.749Z,24.47
2018-06-05T16:44:46.009Z,24.30
2018-06-05T16:47:15.388Z,24.22
2018-06-05T16:49:44.600Z,24.05
2018-06-05T16:52:13.832Z,23.93
2018-06-05T16:54:43.059Z,23.84
2018-06-05T16:57:12.329Z,23.72
2018-06-05T16:59:41.657Z,23.62
2018-06-05T17:02:10.977Z,23.49
2018-06-05T17:04:40.375Z,23.39
2018-06-05T17:07:09.574Z,23.33
2018-06-05T17:09:38.897Z,23.20
2018-06-05T17:12:08.048Z,23.18
2018-06-05T17:14:37.150Z,23.07
2018-06-05T17:17:06.485Z,23.06
2018-06-05T17:19:35.758Z,22.97
2018-06-05T17:22:05.020Z,22.91
2018-06-05T17:24:34.245Z,22.81
2018-06-05T17:27:03.566Z,22.66
2018-06-05T17:29:32.788Z,22.55
2018-06-05T17:32:01.885Z,22.52
2018-06-05T17:34:31.212Z,22.50
2018-06-05T17:37:00.459Z,22.39
2018-06-05T17:39:29.688Z,22.28
2018-06-05T17:41:58.907Z,22.21
2018-06-05T17:44:28.302Z,22.11
2018-06-05T17:46:57.555Z,22.07
2018-06-05T17:49:26.841Z,21.98
2018-06-05T17:51:56.101Z,21.98
2018-06-05T17:54:25.328Z,21.87
2018-06-05T17:56:54.617Z,21.75
2018-06-05T17:59:23.796Z,21.73
2018-06-05T18:01:53.024Z,21.72
2018-06-05T18:04:22.156Z,21.65
2018-06-05T18:06:51.160Z,21.56
2018-06-05T18:09:20.378Z,21.56
2018-06-05T18:11:49.592Z,21.57
2018-06-05T18:14:19.491Z,21.53
2018-06-05T18:16:48.902Z,21.46
2018-06-05T18:19:20.540Z,21.41
2018-06-05T18:21:50.086Z,21.39
2018-06-05T18:24:19.306Z,21.39
2018-06-05T18:26:49.820Z,21.38
2018-06-05T18:29:19.011Z,21.36
2018-06-05T18:31:48.269Z,21.34
2018-06-05T18:34:18.173Z,21.34
2018-06-05T18:36:48.279Z,21.26
2018-06-05T18:39:17.477Z,21.25
2018-06-05T18:41:46.534Z,21.21
2018-06-05T18:44:15.792Z,21.16
2018-06-05T18:46:45.144Z,21.18
2018-06-05T18:49:14.381Z,21.15
2018-06-05T18:51:43.805Z,21.09
2018-06-05T18:54:13.133Z,21.12
2018-06-05T18:56:42.441Z,21.13
2018-06-05T18:59:11.849Z,21.15
2018-06-05T19:01:41.092Z,21.09
2018-06-05T19:04:10.312Z,21.05
2018-06-05T19:06:39.688Z,21.06
2018-06-05T19:09:09.315Z,21.08
2018-06-05T19:11:38.697Z,21.06
2018-06-05T19:14:07.912Z,21.03
2018-06-05T19:16:37.207Z,21.05
2018-06-05T19:19:06.470Z,21.01
2018-06-05T19:21:35.801Z,20.97
2018-06-05T19:24:05.085Z,20.97
2018-06-05T19:26:34.305Z,20.99
2018-06-05T19:29:03.658Z,20.96
2018-06-05T19:31:32.844Z,20.90
2018-06-05T19:34:02.014Z,20.89
2018-06-05T19:36:31.208Z,20.84
2018-06-05T19:39:00.366Z,20.78
2018-06-05T19:41:29.503Z,20.75
2018-06-05T19:43:58.692Z,20.75
2018-06-05T19:46:27.855Z,20.68
2018-06-05T19:48:57.200Z,20.65
2018-06-05T19:51:26.472Z,20.67
2018-06-05T19:53:55.620Z,20.53
2018-06-05T19:56:24.868Z,20.55
2018-06-05T19:58:54.009Z,20.57
2018-06-05T20:01:23.355Z,20.53
2018-06-05T20:03:52.520Z,20.51
2018-06-05T20:06:21.670Z,20.55
2018-06-05T20:08:50.975Z,20.49
2018-06-05T20:11:20.151Z,20.46
2018-06-05T20:13:49.424Z,20.41
2018-06-05T20:16:18.757Z,20.39
2018-06-05T20:18:48.072Z,20.38
2018-06-05T20:21:17.410Z,20.38
2018-06-05T20:23:46.664Z,20.35
2018-06-05T20:26:15.951Z,20.31
2018-06-05T20:28:45.281Z,20.29
2018-06-05T20:31:14.535Z,20.27
2018-06-05T20:33:43.825Z,20.19
2018-06-05T20:36:13.060Z,20.06
2018-06-05T20:38:42.244Z,20.19
2018-06-05T20:41:11.404Z,20.13
2018-06-05T20:43:40.636Z,20.06
2018-06-05T20:46:09.921Z,20.09
2018-06-05T20:48:39.169Z,20.08
2018-06-05T20:51:08.320Z,20.09
2018-06-05T20:53:37.602Z,20.10
2018-06-05T20:56:07.002Z,20.05
2018-06-05T20:58:36.253Z,20.00
2018-06-05T21:01:05.589Z,19.96
2018-06-05T21:03:34.644Z,19.92
2018-06-05T21:06:03.981Z,19.94
2018-06-05T21:08:33.269Z,19.85
2018-06-05T21:11:02.528Z,19.80
2018-06-05T21:13:31.817Z,19.73
2018-06-05T21:16:01.068Z,19.65
2018-06-05T21:18:30.401Z,19.69
2018-06-05T21:20:59.589Z,19.68
2018-06-05T21:23:28.917Z,19.60
2018-06-05T21:25:58.301Z,19.62
2018-06-05T21:28:27.643Z,19.58
2018-06-05T21:30:57.016Z,19.60
2018-06-05T21:33:26.323Z,19.59
2018-06-05T21:35:55.588Z,19.58
2018-06-05T21:38:24.784Z,19.56
2018-06-05T21:40:54.104Z,19.57
2018-06-05T21:43:23.436Z,19.57
2018-06-05T21:45:52.660Z,19.58
2018-06-05T21:48:21.930Z,19.51
2018-06-05T21:50:51.234Z,19.48
2018-06-05T21:53:20.582Z,19.43
2018-06-05T21:55:49.730Z,19.38
2018-06-05T21:58:19.035Z,19.42
2018-06-05T22:00:48.316Z,19.40
2018-06-05T22:03:17.520Z,19.35
2018-06-05T22:05:46.759Z,19.33
2018-06-05T22:08:15.817Z,19.30
2018-06-05T22:10:45.138Z,19.31
2018-06-05T22:13:14.416Z,19.28
2018-06-05T22:15:43.732Z,19.31
2018-06-05T22:18:12.885Z,19.28
2018-06-05T22:20:42.000Z,19.22
2018-06-05T22:23:11.132Z,19.20
2018-06-05T22:25:40.252Z,19.20
2018-06-05T22:28:09.508Z,19.12
2018-06-05T22:30:38.680Z,19.15
2018-06-05T22:33:07.900Z,19.15
2018-06-05T22:35:37.132Z,19.07
2018-06-05T22:38:05.949Z,19.01
2018-06-05T22:40:35.190Z,18.96
2018-06-05T22:43:04.288Z,18.96
2018-06-05T22:45:33.547Z,18.93
2018-06-05T22:48:02.740Z,18.94
2018-06-05T22:50:32.060Z,18.88
2018-06-05T22:53:01.394Z,18.88
2018-06-05T22:55:30.536Z,18.85
2018-06-05T22:57:59.844Z,18.85
2018-06-05T23:00:32.725Z,18.84
2018-06-05T23:03:02.008Z,18.86
2018-06-05T23:05:31.215Z,18.84
2018-06-05T23:08:00.447Z,18.82
2018-06-05T23:10:29.600Z,18.80
2018-06-05T23:12:58.599Z,18.77
2018-06-05T23:15:27.864Z,18.78
2018-06-05T23:17:57.043Z,18.81
2018-06-05T23:20:26.365Z,18.83
2018-06-05T23:22:55.592Z,18.81
2018-06-05T23:25:24.907Z,18.83
2018-06-05T23:27:54.143Z,18.78
2018-06-05T23:30:23.357Z,18.71
2018-06-05T23:32:52.616Z,18.76
2018-06-05T23:35:21.800Z,18.73
2018-06-05T23:37:51.023Z,18.72
2018-06-05T23:40:20.260Z,18.66
2018-06-05T23:42:49.479Z,18.65
2018-06-05T23:45:18.708Z,18.65
2018-06-05T23:47:47.972Z,18.62
2018-06-05T23:50:17.299Z,18.61
2018-06-05T23:52:46.464Z,18.59
2018-06-05T23:55:15.752Z,18.58
2018-06-05T23:57:45.088Z,18.54
